ADDS - METARS form results

Aviation Digital Data Service (ADDS)

Output produced by METARs form (2105 UTC 19 June 2019)
found at http://aviationweather.gov/metar/data/
 
METAR text: KJOT 192055Z AUTO 04010KT 10SM OVC100 22/15 A2970 RMK AO2 T02160148
Conditions at: KJOT (JOLIET , IL, US) observed 2055 UTC 19 June 2019
Temperature: 21.6°C (71°F)
Dewpoint: 14.8°C (59°F) [RH = 65%]
Pressure (altimeter): 29.70 inches Hg (1005.8 mb)
Winds: from the NE (40 degrees) at 12 MPH (10 knots; 5.1 m/s)
Visibility: 10 or more miles (16+ km)
Ceiling: 10000 feet AGL
Clouds: overcast cloud deck at 10000 feet AGL
Weather: automated observation with no human augmentation;
there may or may not be significant weather present at this time

METAR text: KJOT 192035Z AUTO 04011G14KT 10SM BKN110 22/16 A2970 RMK AO2 T02220157
Conditions at: KJOT (JOLIET , IL, US) observed 2035 UTC 19 June 2019
Temperature: 22.2°C (72°F)
Dewpoint: 15.7°C (60°F) [RH = 67%]
Pressure (altimeter): 29.70 inches Hg (1005.8 mb)
Winds: from the NE (40 degrees) at 13 MPH (11 knots; 5.7 m/s)
gusting to 16 MPH (14 knots; 7.2 m/s)
Visibility: 10 or more miles (16+ km)
Ceiling: 11000 feet AGL
Clouds: broken clouds at 11000 feet AGL
Weather: automated observation with no human augmentation;
there may or may not be significant weather present at this time

METAR text: KJOT 192015Z AUTO 04011KT 10SM SCT100 23/17 A2970 RMK AO2 T02310165
Conditions at: KJOT (JOLIET , IL, US) observed 2015 UTC 19 June 2019
Temperature: 23.1°C (74°F)
Dewpoint: 16.5°C (62°F) [RH = 66%]
Pressure (altimeter): 29.70 inches Hg (1005.8 mb)
Winds: from the NE (40 degrees) at 13 MPH (11 knots; 5.7 m/s)
Visibility: 10 or more miles (16+ km)
Ceiling: at least 12,000 feet AGL
Clouds: scattered clouds at 10000 feet AGL
Weather: automated observation with no human augmentation;
there may or may not be significant weather present at this time